Time;durP1;ratioP1;P1;durP2;ratioP2;P2;SDS_P1;SDS_P2;PMS_P1;PMS_P2;Temp;Humidity;BMP_temperature;BMP_pressure;BME280_temperature;BME280_humidity;BME280_pressure;Samples;Min_cycle;Max_cycle;Signal;HPM_P1;HPM_P2
2021/01/15 00:01:38;;;;;;;20.83;10.37;;;2.10;81.10;;;;;;6276116;22;20007;-81
2021/01/15 00:04:04;;;;;;;18.07;10.17;;;2.10;81.30;;;;;;6275942;22;19999;-80
2021/01/15 00:06:30;;;;;;;21.17;10.67;;;2.10;81.30;;;;;;6276281;22;20003;-80
2021/01/15 00:08:56;;;;;;;22.53;11.73;;;2.00;81.40;;;;;;6275831;22;20049;-80
2021/01/15 00:11:26;;;;;;;22.93;12.10;;;2.10;81.60;;;;;;6275847;22;20004;-80
2021/01/15 00:13:53;;;;;;;20.67;10.63;;;2.00;81.60;;;;;;6275841;22;20389;-80
2021/01/15 00:16:31;;;;;;;18.70;11.23;;;2.00;81.60;;;;;;6276188;22;20004;-81
2021/01/15 00:18:59;;;;;;;23.20;11.23;;;2.00;81.90;;;;;;6276165;22;19999;-80
2021/01/15 00:21:25;;;;;;;22.63;11.80;;;2.00;81.90;;;;;;6277729;22;20024;-81
2021/01/15 00:23:54;;;;;;;20.70;11.43;;;2.00;81.80;;;;;;6250724;22;20010;-80
2021/01/15 00:26:21;;;;;;;23.13;11.53;;;1.90;82.00;;;;;;6277995;22;20003;-81
2021/01/15 00:28:47;;;;;;;20.30;11.43;;;1.90;82.00;;;;;;6278081;22;20073;-80
2021/01/15 00:31:13;;;;;;;20.63;10.43;;;1.90;82.00;;;;;;6275371;22;20011;-81
2021/01/15 00:33:39;;;;;;;20.77;11.67;;;1.90;82.10;;;;;;6250454;22;20031;-80
2021/01/15 00:36:06;;;;;;;20.73;11.03;;;1.90;81.80;;;;;;6277844;22;20442;-81
2021/01/15 00:38:32;;;;;;;19.10;10.70;;;1.90;81.80;;;;;;6277803;22;20006;-81
2021/01/15 00:41:04;;;;;;;21.43;10.23;;;1.90;81.80;;;;;;6276638;22;20023;-81
2021/01/15 00:43:31;;;;;;;19.07;10.23;;;1.90;81.70;;;;;;6277731;22;20016;-80
2021/01/15 00:45:58;;;;;;;21.00;11.13;;;1.90;81.80;;;;;;6277904;22;20087;-80
2021/01/15 00:48:23;;;;;;;18.80;10.13;;;1.80;81.90;;;;;;6277949;22;20319;-81
2021/01/15 00:50:49;;;;;;;19.53;10.20;;;1.80;82.50;;;;;;6277690;22;20105;-80
2021/01/15 00:53:15;;;;;;;18.77;10.30;;;1.80;81.90;;;;;;6250853;22;20000;-80
2021/01/15 00:55:41;;;;;;;19.57;10.23;;;1.80;81.80;;;;;;6277928;22;20419;-80
2021/01/15 00:58:06;;;;;;;19.23;9.80;;;1.80;82.00;;;;;;6278458;22;19999;-81
2021/01/15 01:00:32;;;;;;;19.20;10.13;;;1.80;82.10;;;;;;6277328;22;20443;-81
2021/01/15 01:02:58;;;;;;;18.50;9.80;;;1.80;82.30;;;;;;6279075;22;20000;-80
2021/01/15 01:05:24;;;;;;;17.50;9.37;;;1.90;81.60;;;;;;6278421;22;20031;-82
2021/01/15 01:07:51;;;;;;;19.03;9.83;;;1.90;81.50;;;;;;6278401;22;20003;-81
2021/01/15 01:10:17;;;;;;;18.97;9.77;;;1.90;81.40;;;;;;6277544;22;20004;-81
2021/01/15 01:12:43;;;;;;;16.37;9.30;;;2.00;81.20;;;;;;6277832;22;20003;-81
2021/01/15 01:15:11;;;;;;;16.83;9.70;;;2.00;80.70;;;;;;6278484;22;20007;-80
2021/01/15 01:17:37;;;;;;;16.77;8.63;;;2.00;80.50;;;;;;6278537;22;20025;-81
2021/01/15 01:20:04;;;;;;;16.73;8.80;;;2.00;79.60;;;;;;6277996;22;20019;-81
2021/01/15 01:22:30;;;;;;;16.13;8.27;;;2.00;79.50;;;;;;6278031;22;19996;-81
2021/01/15 01:24:56;;;;;;;15.53;8.20;;;2.10;79.20;;;;;;6251029;22;20083;-81
2021/01/15 01:27:21;;;;;;;14.90;8.17;;;2.10;78.40;;;;;;6277344;22;20004;-80
2021/01/15 01:29:47;;;;;;;14.17;7.83;;;2.10;78.50;;;;;;6276634;22;20027;-80
2021/01/15 01:32:12;;;;;;;13.73;7.67;;;2.20;77.90;;;;;;6277129;22;20460;-80
2021/01/15 01:34:38;;;;;;;14.63;7.97;;;2.20;77.10;;;;;;6277443;22;20000;-80
2021/01/15 01:37:03;;;;;;;12.57;7.10;;;2.20;76.70;;;;;;6277310;22;20000;-80
2021/01/15 01:39:29;;;;;;;11.70;6.80;;;2.20;76.70;;;;;;6276861;22;20315;-81
2021/01/15 01:41:55;;;;;;;15.70;7.73;;;2.30;76.40;;;;;;6277253;22;20000;-81
2021/01/15 01:44:20;;;;;;;13.67;7.17;;;2.30;76.30;;;;;;6277439;22;20078;-81
2021/01/15 01:46:47;;;;;;;13.13;6.97;;;2.20;75.90;;;;;;6277655;22;20449;-81
2021/01/15 01:49:14;;;;;;;13.40;7.60;;;2.30;75.80;;;;;;6276762;22;20008;-81
2021/01/15 01:51:40;;;;;;;12.03;7.20;;;2.30;75.70;;;;;;6277270;22;20004;-81
2021/01/15 01:54:07;;;;;;;12.27;7.30;;;2.30;75.50;;;;;;6276950;22;20000;-80
2021/01/15 01:56:32;;;;;;;12.73;7.27;;;2.40;75.20;;;;;;6276919;22;20039;-82
2021/01/15 01:58:59;;;;;;;14.33;7.20;;;2.40;75.80;;;;;;6276661;22;19999;-81
2021/01/15 02:01:25;;;;;;;12.50;7.47;;;2.40;75.50;;;;;;6249755;22;19996;-81
2021/01/15 02:04:04;;;;;;;12.90;7.57;;;2.40;75.40;;;;;;6277340;22;20034;-81
2021/01/15 02:06:32;;;;;;;12.65;7.20;;;2.40;75.20;;;;;;6277324;22;20000;-81
2021/01/15 02:08:57;;;;;;;15.70;8.30;;;2.40;75.60;;;;;;6276172;22;20330;-81
2021/01/15 02:11:54;;;;;;;15.47;7.43;;;2.30;75.40;;;;;;6276615;22;20054;-81
2021/01/15 02:14:49;;;;;;;14.63;7.50;;;2.30;75.50;;;;;;6277203;22;20343;-80
2021/01/15 02:17:18;;;;;;;15.40;7.40;;;2.40;75.20;;;;;;6141605;22;20010;-81
2021/01/15 02:20:25;;;;;;;13.52;7.45;;;2.40;75.30;;;;;;6276631;22;19995;-81
2021/01/15 02:23:18;;;;;;;14.80;7.40;;;2.30;74.80;;;;;;6277872;22;20042;-81
2021/01/15 02:26:05;;;;;;;14.73;8.17;;;2.40;74.90;;;;;;6261006;22;20065;-80
2021/01/15 02:28:46;;;;;;;12.87;7.20;;;2.40;74.50;;;;;;6249650;22;20010;-81
2021/01/15 02:31:45;;;;;;;13.53;7.00;;;2.30;75.10;;;;;;6249031;22;20047;-80
2021/01/15 02:34:45;;;;;;;15.20;7.50;;;2.40;74.80;;;;;;6276907;22;20004;-80
2021/01/15 02:37:41;;;;;;;13.32;7.43;;;2.30;75.40;;;;;;6276592;22;20003;-81
2021/01/15 02:40:44;;;;;;;12.67;7.50;;;2.40;75.10;;;;;;6277294;22;20049;-81
2021/01/15 02:43:12;;;;;;;11.63;7.17;;;2.30;75.60;;;;;;6278236;22;19992;-81
2021/01/15 02:45:38;;;;;;;13.87;7.40;;;2.40;75.70;;;;;;6278183;22;20489;-81
2021/01/15 02:48:04;;;;;;;15.73;7.37;;;2.40;75.90;;;;;;6250434;22;20004;-81
2021/01/15 02:50:30;;;;;;;13.53;7.83;;;2.40;75.90;;;;;;6278475;22;20002;-81
2021/01/15 02:52:56;;;;;;;14.23;7.33;;;2.30;76.20;;;;;;6278865;22;20395;-81
2021/01/15 02:55:26;;;;;;;12.20;7.63;;;2.40;76.00;;;;;;6279522;22;19999;-82
2021/01/15 02:57:52;;;;;;;12.50;7.72;;;2.40;76.10;;;;;;6279154;22;20079;-81
2021/01/15 03:00:20;;;;;;;13.87;7.70;;;2.40;75.70;;;;;;6278866;22;19998;-82
2021/01/15 03:03:22;;;;;;;13.87;7.70;;;2.30;75.90;;;;;;6279757;22;20007;-81
2021/01/15 03:05:57;;;;;;;14.23;7.83;;;2.30;76.40;;;;;;6258780;22;20015;-81
2021/01/15 03:08:25;;;;;;;14.30;7.47;;;2.30;76.20;;;;;;6279470;22;20004;-82
2021/01/15 03:10:51;;;;;;;12.20;7.47;;;2.30;76.60;;;;;;6252252;22;20342;-81
2021/01/15 03:13:18;;;;;;;13.67;7.60;;;2.20;76.60;;;;;;6279304;22;20436;-81
2021/01/15 03:15:46;;;;;;;12.07;7.60;;;2.20;76.80;;;;;;6279777;22;20315;-81
2021/01/15 03:18:14;;;;;;;12.93;7.63;;;2.30;77.00;;;;;;6280455;22;20000;-81
2021/01/15 03:20:40;;;;;;;14.10;8.07;;;2.30;77.00;;;;;;6279313;22;20049;-81
2021/01/15 03:23:05;;;;;;;15.80;8.43;;;2.20;77.60;;;;;;6279619;22;20004;-82
2021/01/15 03:25:31;;;;;;;14.93;8.17;;;2.20;77.20;;;;;;6279855;22;19999;-81
2021/01/15 03:27:58;;;;;;;15.57;8.90;;;2.20;77.50;;;;;;6280540;22;20000;-82
2021/01/15 03:30:30;;;;;;;13.87;8.03;;;2.30;77.70;;;;;;6279549;22;20367;-81
2021/01/15 03:33:01;;;;;;;15.30;9.03;;;2.30;78.10;;;;;;6280004;22;20415;-81
2021/01/15 03:35:28;;;;;;;16.17;8.83;;;2.30;78.80;;;;;;6280405;22;19999;-82
2021/01/15 03:38:04;;;;;;;16.10;9.07;;;2.30;78.80;;;;;;6280139;22;20671;-82
2021/01/15 03:40:31;;;;;;;14.10;8.37;;;2.30;79.20;;;;;;6279439;22;20015;-81
2021/01/15 03:42:58;;;;;;;15.77;9.53;;;2.10;80.30;;;;;;6277873;22;20067;-81
2021/01/15 03:45:24;;;;;;;16.37;9.87;;;2.20;80.70;;;;;;6277250;22;20431;-81
2021/01/15 03:47:50;;;;;;;16.50;9.37;;;2.10;81.00;;;;;;6278732;22;20046;-81
2021/01/15 03:50:16;;;;;;;18.20;9.77;;;2.20;80.80;;;;;;6250770;22;20003;-82
2021/01/15 03:52:42;;;;;;;19.63;10.00;;;2.20;81.00;;;;;;6279369;22;20049;-81
2021/01/15 03:55:08;;;;;;;16.80;9.80;;;2.20;81.60;;;;;;6280268;22;20023;-81
2021/01/15 03:57:34;;;;;;;15.87;9.73;;;2.20;81.50;;;;;;6280565;22;20004;-81
2021/01/15 04:00:01;;;;;;;17.63;10.13;;;2.20;82.30;;;;;;6279736;22;20005;-81
2021/01/15 04:02:29;;;;;;;16.80;10.20;;;2.20;82.20;;;;;;6280335;22;20335;-82
2021/01/15 04:04:55;;;;;;;18.97;10.27;;;2.20;82.60;;;;;;6280026;22;20015;-81
2021/01/15 04:07:20;;;;;;;17.33;10.83;;;2.30;82.50;;;;;;6280442;22;20042;-81
2021/01/15 04:09:46;;;;;;;17.40;10.33;;;2.30;82.50;;;;;;6279205;22;20004;-80
2021/01/15 04:12:12;;;;;;;18.60;10.60;;;2.20;82.80;;;;;;6279717;22;20000;-81
2021/01/15 04:14:39;;;;;;;18.93;10.90;;;2.30;82.90;;;;;;6280369;22;20010;-80
2021/01/15 04:17:04;;;;;;;19.40;10.20;;;2.30;82.70;;;;;;6280732;22;20063;-81
2021/01/15 04:19:30;;;;;;;18.10;10.43;;;2.30;82.50;;;;;;6279277;22;20004;-81
2021/01/15 04:21:56;;;;;;;20.97;11.03;;;2.30;82.80;;;;;;6280028;22;19996;-81
2021/01/15 04:24:22;;;;;;;20.53;11.50;;;2.30;83.00;;;;;;6279603;22;20033;-80
2021/01/15 04:26:52;;;;;;;20.07;10.90;;;2.30;83.20;;;;;;6279893;22;20071;-81
2021/01/15 04:29:18;;;;;;;20.63;11.73;;;2.30;83.40;;;;;;6279020;22;20004;-80
2021/01/15 04:31:44;;;;;;;20.87;11.13;;;2.30;83.00;;;;;;6279791;22;20332;-81
2021/01/15 04:34:10;;;;;;;21.00;12.00;;;2.30;83.40;;;;;;6278244;22;20034;-81
2021/01/15 04:36:35;;;;;;;21.17;12.20;;;2.30;83.60;;;;;;6279807;22;20043;-81
2021/01/15 04:39:01;;;;;;;21.60;11.97;;;2.30;83.60;;;;;;6279370;22;20078;-81
2021/01/15 04:41:30;;;;;;;19.33;11.43;;;2.30;83.60;;;;;;6278545;22;19996;-81
2021/01/15 04:43:56;;;;;;;17.55;9.43;;;2.30;83.50;;;;;;6279433;22;20000;-81
2021/01/15 04:46:23;;;;;;;25.07;12.97;;;2.30;83.50;;;;;;6251508;22;20008;-81
2021/01/15 04:48:53;;;;;;;22.73;12.80;;;2.30;83.50;;;;;;6279193;22;20004;-81
2021/01/15 04:51:29;;;;;;;22.13;12.27;;;2.30;83.70;;;;;;6279210;22;20004;-81
2021/01/15 04:54:00;;;;;;;22.00;12.70;;;2.30;83.60;;;;;;6279246;22;20006;-81
2021/01/15 04:56:31;;;;;;;23.00;13.07;;;2.30;83.80;;;;;;6279131;22;20007;-80
2021/01/15 04:59:05;;;;;;;22.87;13.50;;;2.20;84.60;;;;;;6278383;22;20030;-81
2021/01/15 05:01:39;;;;;;;21.93;12.20;;;2.30;84.10;;;;;;6278855;22;20004;-81
2021/01/15 05:04:09;;;;;;;24.20;13.03;;;2.30;84.30;;;;;;6279020;22;19995;-80
2021/01/15 05:06:46;;;;;;;22.90;12.93;;;2.20;84.70;;;;;;6279039;22;20008;-81
2021/01/15 05:09:17;;;;;;;23.93;13.30;;;2.20;84.70;;;;;;6278338;22;20004;-81
2021/01/15 05:11:44;;;;;;;24.67;13.40;;;2.30;84.30;;;;;;6278790;22;19999;-80
2021/01/15 05:14:12;;;;;;;22.07;13.40;;;2.20;84.50;;;;;;6278935;22;20031;-81
2021/01/15 05:16:39;;;;;;;26.13;14.00;;;2.20;84.50;;;;;;6278420;22;20065;-80
2021/01/15 05:19:06;;;;;;;26.13;14.10;;;2.10;85.20;;;;;;6251042;22;20000;-81
2021/01/15 05:21:33;;;;;;;25.03;14.90;;;2.10;86.00;;;;;;6278541;22;20003;-81
2021/01/15 05:24:00;;;;;;;24.33;13.60;;;2.20;85.10;;;;;;6251602;22;20011;-81
2021/01/15 05:26:25;;;;;;;27.67;14.73;;;2.20;85.00;;;;;;6279180;22;20453;-81
2021/01/15 05:28:52;;;;;;;25.60;14.10;;;2.20;85.20;;;;;;6279330;22;20086;-81
2021/01/15 05:31:18;;;;;;;30.00;15.63;;;2.20;85.70;;;;;;6278873;22;20008;-79
2021/01/15 05:34:03;;;;;;;29.53;16.03;;;2.10;86.20;;;;;;6277664;22;20057;-79
2021/01/15 05:36:30;;;;;;;26.13;14.87;;;2.00;86.50;;;;;;6277275;22;19996;-80
2021/01/15 05:39:08;;;;;;;27.97;15.50;;;2.00;86.80;;;;;;6276563;22;20433;-79
2021/01/15 05:41:34;;;;;;;28.60;14.53;;;2.10;86.10;;;;;;6277165;22;19996;-79
2021/01/15 05:44:01;;;;;;;27.40;15.43;;;2.00;86.50;;;;;;6277397;22;20007;-80
2021/01/15 05:46:27;;;;;;;29.23;15.00;;;2.10;85.70;;;;;;6277363;22;20078;-79
2021/01/15 05:48:54;;;;;;;27.43;15.50;;;2.10;85.90;;;;;;6276955;22;20039;-80
2021/01/15 05:51:30;;;;;;;31.97;16.10;;;2.20;85.60;;;;;;6275217;22;20035;-79
2021/01/15 05:53:57;;;;;;;29.53;16.13;;;2.10;85.90;;;;;;6277467;22;20027;-79
2021/01/15 05:56:24;;;;;;;26.60;15.80;;;2.10;85.80;;;;;;6277288;22;20003;-79
2021/01/15 05:59:03;;;;;;;29.50;16.03;;;2.10;86.00;;;;;;6276538;22;19996;-79
2021/01/15 06:01:55;;;;;;;28.77;15.88;;;2.20;85.70;;;;;;6276902;22;20020;-79
2021/01/15 06:04:33;;;;;;;30.33;16.50;;;2.20;85.60;;;;;;6271409;22;20014;-80
2021/01/15 06:07:11;;;;;;;28.70;15.87;;;2.20;85.50;;;;;;6276934;22;20004;-80
2021/01/15 06:09:41;;;;;;;27.37;15.40;;;2.10;86.30;;;;;;6276688;22;20034;-80
2021/01/15 06:12:09;;;;;;;29.50;15.93;;;2.10;85.90;;;;;;6276910;22;20053;-80
2021/01/15 06:14:48;;;;;;;30.20;15.97;;;2.20;85.60;;;;;;6275205;22;20016;-79
2021/01/15 06:17:15;;;;;;;28.70;15.27;;;2.10;85.20;;;;;;6276653;22;20003;-80
2021/01/15 06:19:49;;;;;;;28.90;15.17;;;2.20;85.80;;;;;;6276049;22;20010;-79
2021/01/15 06:22:44;;;;;;;28.73;16.30;;;2.20;85.70;;;;;;6276386;22;19995;-79
2021/01/15 06:25:29;;;;;;;30.97;16.30;;;2.20;85.60;;;;;;6276467;22;20369;-79
2021/01/15 06:27:56;;;;;;;30.37;15.97;;;2.10;86.00;;;;;;6276508;22;19999;-79
2021/01/15 06:30:23;;;;;;;29.40;16.27;;;2.10;86.00;;;;;;6275530;22;20083;-80
2021/01/15 06:32:50;;;;;;;29.87;15.27;;;2.00;86.40;;;;;;6276757;22;20006;-79
2021/01/15 06:35:26;;;;;;;28.23;15.40;;;2.10;86.00;;;;;;6277090;22;20003;-80
2021/01/15 06:38:03;;;;;;;29.33;15.50;;;2.00;86.40;;;;;;6276883;22;20379;-79
2021/01/15 06:40:35;;;;;;;28.50;15.30;;;2.00;86.40;;;;;;6249058;22;19999;-80
2021/01/15 06:43:04;;;;;;;30.50;15.17;;;2.00;86.00;;;;;;6276519;22;20339;-79
2021/01/15 06:45:49;;;;;;;22.50;12.32;;;1.90;86.50;;;;;;6276625;22;20003;-79
2021/01/15 06:48:28;;;;;;;27.17;15.27;;;2.00;87.10;;;;;;6276887;22;20019;-79
2021/01/15 06:50:56;;;;;;;29.10;15.90;;;2.00;86.60;;;;;;6275801;22;20000;-79
2021/01/15 06:53:26;;;;;;;28.07;15.93;;;2.00;86.30;;;;;;6276770;22;20038;-79
2021/01/15 06:55:53;;;;;;;27.33;15.07;;;2.00;86.40;;;;;;6275049;22;20394;-79
2021/01/15 06:58:23;;;;;;;28.17;15.00;;;2.00;86.60;;;;;;6276370;22;20026;-79
2021/01/15 07:01:11;;;;;;;27.70;15.37;;;2.00;86.20;;;;;;6273477;22;20000;-79
2021/01/15 07:03:42;;;;;;;28.17;15.90;;;2.10;86.30;;;;;;6276003;22;20007;-80
2021/01/15 07:06:26;;;;;;;25.60;14.30;;;2.10;85.80;;;;;;6276615;22;20379;-79
2021/01/15 07:08:54;;;;;;;30.23;15.13;;;2.10;85.80;;;;;;6275928;22;20090;-80
2021/01/15 07:11:22;;;;;;;28.77;16.00;;;2.10;85.80;;;;;;6277145;22;20004;-79
2021/01/15 07:13:53;;;;;;;27.80;15.43;;;2.10;85.60;;;;;;6276773;22;20003;-80
2021/01/15 07:16:27;;;;;;;25.00;14.83;;;2.10;85.90;;;;;;6276194;22;20038;-79
2021/01/15 07:19:06;;;;;;;25.30;14.80;;;2.00;87.10;;;;;;6275706;22;20423;-80
2021/01/15 07:21:37;;;;;;;27.85;15.02;;;2.00;86.40;;;;;;6275912;22;20011;-80
2021/01/15 07:24:04;;;;;;;28.77;15.23;;;2.10;85.30;;;;;;6276181;22;20415;-79
2021/01/15 07:26:39;;;;;;;27.77;14.87;;;2.10;85.20;;;;;;6276595;22;20000;-80
2021/01/15 07:29:07;;;;;;;27.30;15.47;;;2.10;85.30;;;;;;6275685;22;20003;-79
2021/01/15 07:31:36;;;;;;;28.57;15.87;;;2.10;85.70;;;;;;6276497;22;20011;-80
2021/01/15 07:34:05;;;;;;;29.67;16.52;;;2.10;85.60;;;;;;6276151;22;20565;-79
2021/01/15 07:36:32;;;;;;;30.75;15.68;;;2.10;85.60;;;;;;6276041;22;20003;-80
2021/01/15 07:39:14;;;;;;;28.03;14.57;;;2.00;85.80;;;;;;6274967;22;20003;-79
2021/01/15 07:41:48;;;;;;;29.27;16.20;;;2.10;85.90;;;;;;6275430;22;20331;-79
2021/01/15 07:44:23;;;;;;;34.10;16.33;;;2.10;85.70;;;;;;6275839;22;20011;-79
2021/01/15 07:46:56;;;;;;;28.77;15.50;;;2.10;85.90;;;;;;6276318;22;20373;-80
2021/01/15 07:49:22;;;;;;;26.90;15.17;;;2.10;85.50;;;;;;6275774;22;20004;-80
2021/01/15 07:52:07;;;;;;;28.43;15.10;;;2.20;85.50;;;;;;6276002;22;20003;-79
2021/01/15 07:54:57;;;;;;;29.60;15.20;;;2.20;85.20;;;;;;6249246;22;20004;-80
2021/01/15 07:57:23;;;;;;;27.83;14.63;;;2.10;85.50;;;;;;6276805;22;19999;-79
2021/01/15 07:59:48;;;;;;;26.63;15.43;;;2.10;85.30;;;;;;6275709;22;20003;-79
2021/01/15 08:02:18;;;;;;;28.70;15.30;;;2.20;84.80;;;;;;6276350;22;20002;-79
2021/01/15 08:04:44;;;;;;;27.87;14.40;;;2.10;85.10;;;;;;6275097;22;20508;-80
2021/01/15 08:07:32;;;;;;;27.83;15.80;;;2.10;85.10;;;;;;6277374;22;20000;-80
2021/01/15 08:09:58;;;;;;;29.97;16.57;;;2.10;85.00;;;;;;6276373;22;20043;-80
2021/01/15 08:12:23;;;;;;;29.77;15.73;;;2.10;85.30;;;;;;6276881;22;20423;-80
2021/01/15 08:14:49;;;;;;;30.30;16.53;;;2.10;85.70;;;;;;6276858;22;20019;-80
2021/01/15 08:17:25;;;;;;;29.57;16.30;;;2.10;85.20;;;;;;6277085;22;20015;-80
2021/01/15 08:19:51;;;;;;;28.53;16.27;;;2.00;85.60;;;;;;6276348;22;20071;-80
2021/01/15 08:22:18;;;;;;;27.50;15.17;;;2.00;85.70;;;;;;6276226;22;20004;-80
2021/01/15 08:24:48;;;;;;;30.73;16.40;;;2.10;85.70;;;;;;6277408;22;19996;-79
2021/01/15 08:27:21;;;;;;;29.77;16.42;;;2.00;85.70;;;;;;6277750;22;20342;-81
2021/01/15 08:29:47;;;;;;;30.43;15.30;;;2.00;86.00;;;;;;6280618;22;20057;-81
2021/01/15 08:32:13;;;;;;;28.60;15.03;;;2.00;85.80;;;;;;6280505;22;20331;-81
2021/01/15 08:34:39;;;;;;;31.67;15.83;;;2.00;86.30;;;;;;6282288;22;20006;-81
2021/01/15 08:37:10;;;;;;;28.23;16.00;;;2.00;85.80;;;;;;6282804;22;20003;-81
2021/01/15 08:39:50;;;;;;;27.00;14.93;;;2.10;85.70;;;;;;6254062;22;20000;-81
2021/01/15 08:42:16;;;;;;;29.00;15.40;;;2.10;85.80;;;;;;6255894;22;19999;-81
2021/01/15 08:44:45;;;;;;;29.07;15.73;;;2.00;85.60;;;;;;6283233;22;20427;-82
2021/01/15 08:47:13;;;;;;;30.92;16.02;;;2.10;85.90;;;;;;6280317;22;20012;-81
2021/01/15 08:49:49;;;;;;;30.87;15.73;;;2.00;86.30;;;;;;6281181;22;20003;-81
2021/01/15 08:52:19;;;;;;;29.37;15.50;;;2.10;85.90;;;;;;6281328;22;20018;-81
2021/01/15 08:54:46;;;;;;;29.85;15.25;;;2.10;85.90;;;;;;6281983;22;20011;-81
2021/01/15 08:57:13;;;;;;;29.43;15.27;;;2.10;86.10;;;;;;6281383;22;20000;-81
2021/01/15 08:59:40;;;;;;;29.83;16.10;;;2.10;85.90;;;;;;6278197;22;20023;-81
2021/01/15 09:02:06;;;;;;;27.27;15.87;;;2.10;86.00;;;;;;6280795;22;20030;-80
2021/01/15 09:04:33;;;;;;;28.03;14.93;;;2.10;85.80;;;;;;6278710;22;20073;-81
2021/01/15 09:07:06;;;;;;;30.13;16.07;;;2.20;85.50;;;;;;6251190;22;20007;-81
2021/01/15 09:09:33;;;;;;;30.70;15.90;;;2.20;85.80;;;;;;6277958;22;20003;-81
2021/01/15 09:12:06;;;;;;;28.60;15.87;;;2.10;85.70;;;;;;6278965;22;20000;-80
2021/01/15 09:14:35;;;;;;;29.90;15.53;;;2.20;85.30;;;;;;6278663;22;20069;-81
2021/01/15 09:17:06;;;;;;;27.60;15.32;;;2.20;85.80;;;;;;6279417;22;20035;-81
2021/01/15 09:19:32;;;;;;;28.43;15.20;;;2.20;85.40;;;;;;6278269;22;20020;-80
2021/01/15 09:22:02;;;;;;;30.07;15.83;;;2.10;85.70;;;;;;6278517;22;19999;-80
2021/01/15 09:24:31;;;;;;;;;;;2.10;85.80;;;;;;6279275;22;19996;-81
2021/01/15 09:27:07;;;;;;;28.63;14.90;;;2.20;85.70;;;;;;6277404;22;19970;-80
2021/01/15 09:29:34;;;;;;;33.87;15.77;;;2.20;85.70;;;;;;6276445;22;20338;-79
2021/01/15 09:32:01;;;;;;;27.60;14.83;;;2.20;85.50;;;;;;6276782;22;20011;-80
2021/01/15 09:34:29;;;;;;;28.73;15.70;;;2.20;85.60;;;;;;6277674;22;20087;-80
2021/01/15 09:36:59;;;;;;;28.27;15.93;;;2.10;85.70;;;;;;6277269;22;20133;-79
2021/01/15 09:39:26;;;;;;;30.25;16.42;;;2.20;85.50;;;;;;6277068;22;20327;-79
2021/01/15 09:41:57;;;;;;;29.40;14.63;;;2.20;85.30;;;;;;6250109;22;20010;-80
2021/01/15 09:44:26;;;;;;;31.70;15.83;;;2.20;86.00;;;;;;6277567;22;20058;-79
2021/01/15 09:47:03;;;;;;;30.73;15.30;;;2.20;85.70;;;;;;6277089;22;20031;-80
2021/01/15 09:49:32;;;;;;;29.90;15.37;;;2.20;85.10;;;;;;6250808;22;20102;-80
2021/01/15 09:52:05;;;;;;;26.40;14.48;;;2.20;85.80;;;;;;6278454;22;20003;-81
2021/01/15 09:54:32;;;;;;;28.60;14.53;;;2.20;85.60;;;;;;6278911;22;20391;-81
2021/01/15 09:56:57;;;;;;;28.80;15.40;;;2.10;85.20;;;;;;6277931;22;20003;-81
2021/01/15 09:59:23;;;;;;;30.97;15.50;;;2.20;86.00;;;;;;6276911;22;20318;-80
2021/01/15 10:01:49;;;;;;;25.80;14.83;;;2.10;85.50;;;;;;6277894;22;20000;-80
2021/01/15 10:04:16;;;;;;;34.60;15.63;;;2.10;85.70;;;;;;6278412;22;20563;-81
2021/01/15 10:06:46;;;;;;;27.97;15.83;;;2.20;85.50;;;;;;6278694;22;20007;-82
2021/01/15 10:09:13;;;;;;;27.23;14.90;;;2.30;85.30;;;;;;6278252;22;19999;-81
2021/01/15 10:11:41;;;;;;;30.27;15.47;;;2.40;84.80;;;;;;6278603;22;20419;-82
2021/01/15 10:14:08;;;;;;;30.77;15.83;;;2.30;84.60;;;;;;6278000;22;20000;-80
2021/01/15 10:16:39;;;;;;;29.23;14.13;;;2.30;84.40;;;;;;6278665;22;20072;-81
2021/01/15 10:19:05;;;;;;;30.10;14.80;;;2.30;84.40;;;;;;6277579;22;20003;-81
2021/01/15 10:21:32;;;;;;;28.33;14.77;;;2.20;84.40;;;;;;6278314;22;20069;-81
2021/01/15 10:23:59;;;;;;;27.13;15.10;;;2.30;85.10;;;;;;6279094;22;20427;-81
2021/01/15 10:26:32;;;;;;;26.43;13.57;;;2.30;84.10;;;;;;6278510;22;20010;-80
2021/01/15 10:29:06;;;;;;;30.53;14.50;;;2.30;84.70;;;;;;6277080;22;20007;-81
2021/01/15 10:31:34;;;;;;;26.07;14.13;;;2.40;84.40;;;;;;6278023;22;20303;-80
2021/01/15 10:34:02;;;;;;;27.27;14.07;;;2.40;84.20;;;;;;6278082;22;20007;-80
2021/01/15 10:36:27;;;;;;;28.77;14.80;;;2.30;84.40;;;;;;6278532;22;20010;-80
2021/01/15 10:38:53;;;;;;;28.07;14.77;;;2.30;84.10;;;;;;6277394;22;20342;-80
2021/01/15 10:41:46;;;;;;;28.30;14.37;;;2.40;83.80;;;;;;6251434;22;20011;-81
2021/01/15 10:44:16;;;;;;;29.53;14.07;;;2.40;83.90;;;;;;6246940;22;20004;-81
2021/01/15 10:46:43;;;;;;;26.42;13.30;;;2.40;83.80;;;;;;6278471;22;20003;-81
2021/01/15 10:49:10;;;;;;;27.70;14.20;;;2.50;83.40;;;;;;6277925;22;20334;-81
2021/01/15 10:51:41;;;;;;;23.97;12.70;;;2.50;83.20;;;;;;6279711;22;20075;-80
2021/01/15 10:54:07;;;;;;;21.97;12.30;;;2.50;83.20;;;;;;6276918;22;20008;-81
2021/01/15 10:56:40;;;;;;;27.47;12.87;;;2.50;82.70;;;;;;6278787;22;19999;-80
2021/01/15 10:59:07;;;;;;;26.20;12.77;;;2.60;82.30;;;;;;6250546;22;20283;-81
2021/01/15 11:01:39;;;;;;;27.73;13.27;;;2.60;82.40;;;;;;6278819;22;20004;-81
2021/01/15 11:04:08;;;;;;;24.10;12.53;;;2.60;82.70;;;;;;6277690;22;19992;-81
2021/01/15 11:06:37;;;;;;;24.15;12.90;;;2.60;81.80;;;;;;6278374;22;20000;-81
2021/01/15 11:09:05;;;;;;;28.33;13.75;;;2.60;81.90;;;;;;6278064;22;20011;-80
2021/01/15 11:11:31;;;;;;;27.57;13.27;;;2.60;81.60;;;;;;6283051;22;20030;-81
2021/01/15 11:13:57;;;;;;;27.73;13.47;;;2.60;81.60;;;;;;6279324;22;20308;-81
2021/01/15 11:16:24;;;;;;;20.93;11.57;;;2.70;81.20;;;;;;6278935;22;20013;-81
2021/01/15 11:18:50;;;;;;;24.47;12.10;;;2.70;80.90;;;;;;6278017;22;20003;-81
2021/01/15 11:21:26;;;;;;;25.03;12.60;;;2.70;80.70;;;;;;6278012;22;20335;-80
2021/01/15 11:23:52;;;;;;;23.33;11.30;;;2.80;80.40;;;;;;6251142;22;20004;-80
2021/01/15 11:26:24;;;;;;;23.13;12.03;;;2.80;80.40;;;;;;6278154;22;20022;-81
2021/01/15 11:28:50;;;;;;;23.20;12.60;;;2.70;80.10;;;;;;6278774;22;20049;-81
2021/01/15 11:31:17;;;;;;;29.60;13.07;;;2.70;80.40;;;;;;6279413;22;20012;-81
2021/01/15 11:33:42;;;;;;;25.60;13.23;;;2.70;80.60;;;;;;6277336;22;20004;-81
2021/01/15 11:36:12;;;;;;;27.73;12.97;;;2.60;80.30;;;;;;6277936;22;20375;-81
2021/01/15 11:38:38;;;;;;;25.48;13.30;;;2.60;81.30;;;;;;6278406;22;19996;-81
2021/01/15 11:41:05;;;;;;;24.27;12.83;;;2.60;81.60;;;;;;6278017;22;20000;-80
2021/01/15 11:43:34;;;;;;;29.40;13.20;;;2.70;81.60;;;;;;6277812;22;20028;-81
2021/01/15 11:46:01;;;;;;;28.90;14.90;;;2.70;81.20;;;;;;6278933;22;20053;-81
2021/01/15 11:48:27;;;;;;;30.27;13.80;;;2.80;81.20;;;;;;6278125;22;20006;-81
2021/01/15 11:50:54;;;;;;;29.57;13.57;;;2.60;81.40;;;;;;6276806;22;19999;-81
2021/01/15 11:53:20;;;;;;;27.13;13.07;;;2.70;81.80;;;;;;6277919;22;20490;-81
2021/01/15 11:55:48;;;;;;;30.43;14.20;;;2.70;82.10;;;;;;6277866;22;20030;-81
2021/01/15 11:58:14;;;;;;;30.17;14.77;;;2.70;81.80;;;;;;6277480;22;20046;-81
2021/01/15 12:00:40;;;;;;;31.50;13.70;;;2.60;81.60;;;;;;6276565;22;19996;-81
2021/01/15 12:03:05;;;;;;;27.10;13.23;;;2.60;81.40;;;;;;6277517;22;20053;-81
2021/01/15 12:05:31;;;;;;;24.20;12.23;;;2.40;81.40;;;;;;6277134;22;20000;-81
2021/01/15 12:07:56;;;;;;;27.73;12.83;;;2.50;81.50;;;;;;6277055;22;20003;-80
2021/01/15 12:10:22;;;;;;;25.20;12.47;;;2.50;81.40;;;;;;6276244;22;20437;-82
2021/01/15 12:12:48;;;;;;;22.13;11.43;;;2.50;81.50;;;;;;6276813;22;20381;-81
2021/01/15 12:15:13;;;;;;;26.57;12.10;;;2.50;80.10;;;;;;6278080;22;20003;-80
2021/01/15 12:17:39;;;;;;;22.20;11.20;;;2.50;80.90;;;;;;6278635;22;20406;-80
2021/01/15 12:20:05;;;;;;;24.10;11.87;;;2.50;80.30;;;;;;6277486;22;20049;-81
2021/01/15 12:22:31;;;;;;;22.00;11.43;;;2.60;79.80;;;;;;6279754;22;20011;-81
2021/01/15 12:24:56;;;;;;;25.73;13.70;;;2.60;80.20;;;;;;6279692;22;19999;-81
2021/01/15 12:27:22;;;;;;;28.10;13.03;;;2.60;80.50;;;;;;6279814;22;20003;-81
2021/01/15 12:29:48;;;;;;;34.43;15.60;;;2.60;81.60;;;;;;6278479;22;20448;-81
2021/01/15 12:32:13;;;;;;;35.77;15.47;;;2.50;83.30;;;;;;6276697;22;20350;-81
2021/01/15 12:34:39;;;;;;;36.03;15.80;;;2.50;83.70;;;;;;6278947;22;20450;-80
2021/01/15 12:37:05;;;;;;;32.80;15.83;;;2.40;83.90;;;;;;6279140;22;20000;-81
2021/01/15 12:39:30;;;;;;;34.93;16.27;;;2.30;84.50;;;;;;6278075;22;20427;-81
2021/01/15 12:41:56;;;;;;;37.10;16.93;;;2.30;85.00;;;;;;6278304;22;20027;-80
2021/01/15 12:44:22;;;;;;;37.93;16.53;;;2.30;85.40;;;;;;6278890;22;20007;-81
2021/01/15 12:46:48;;;;;;;38.33;18.00;;;2.30;86.10;;;;;;6278617;22;20007;-80
2021/01/15 12:49:14;;;;;;;37.50;18.07;;;2.30;86.10;;;;;;6278469;22;20007;-81
2021/01/15 12:51:42;;;;;;;37.07;18.97;;;2.30;86.10;;;;;;6279276;22;20004;-81
2021/01/15 12:54:08;;;;;;;35.13;18.00;;;2.40;86.40;;;;;;6279694;22;20065;-81